<?xml version="1.0" encoding="UTF-8" standalone="no" ?>
<gpx xmlns="http://www.topografix.com/GPX/1/1" xmlns:xsi="http://www.w3.org/2001/XMLSchema-instance" xsi:schemaLocation="http://www.topografix.com/GPX/1/1 http://www.topografix.com/GPX/1/1/gpx.xsd" version="1.1" creator="VisuGPX - https://www.visugpx.com">
  <metadata>
    <name>2024 05 22 Parcours Total 2024</name>
  </metadata>
  <trk>
    <name><![CDATA[VTT14 B1]]></name>
    <extensions>
      <line xmlns="http://www.topografix.com/GPX/gpx_style/0/2">
        <color>0000ff</color>
        <width>6</width>
      </line>
    </extensions>
    <trkseg>
      <trkpt lat="48.19794" lon="3.28323">
        <ele>74</ele>
        <time>2020-02-08T09:12:53Z</time>
        <extensions>
          <visugpx:TrkExtension xmlns:visugpx="https://www.visugpx.com/editgpx/">
            <visugpx:node>1</visugpx:node>
            </visugpx:TrkExtension>
        </extensions>
      </trkpt>
      <trkpt lat="48.19794" lon="3.28323">
        <ele>74</ele>
        <time>2020-02-08T09:12:54Z</time>
      </trkpt>
      <trkpt lat="48.19796" lon="3.2831">
        <ele>74</ele>
      </trkpt>
      <trkpt lat="48.198" lon="3.28295">
        <ele>74</ele>
      </trkpt>
      <trkpt lat="48.19804" lon="3.28282">
        <ele>74</ele>
      </trkpt>
      <trkpt lat="48.19816" lon="3.28278">
        <ele>74</ele>
        <time>2020-02-08T09:13:17Z</time>
      </trkpt>
      <trkpt lat="48.19827" lon="3.28273">
        <ele>74</ele>
        <time>2020-02-08T09:13:22Z</time>
      </trkpt>
      <trkpt lat="48.1984" lon="3.28271">
        <ele>73.9</ele>
      </trkpt>
      <trkpt lat="48.19836" lon="3.28247">
        <ele>73.8</ele>
      </trkpt>
      <trkpt lat="48.1983" lon="3.28193">
        <ele>73</ele>
      </trkpt>
      <trkpt lat="48.19826" lon="3.28174">
        <ele>73</ele>
      </trkpt>
      <trkpt lat="48.19821" lon="3.28152">
        <ele>73</ele>
      </trkpt>
      <trkpt lat="48.19821" lon="3.28136">
        <ele>73</ele>
      </trkpt>
      <trkpt lat="48.19821" lon="3.28099">
        <ele>73</ele>
      </trkpt>
      <trkpt lat="48.19818" lon="3.2804">
        <ele>72</ele>
      </trkpt>
      <trkpt lat="48.19816" lon="3.28008">
        <ele>72</ele>
      </trkpt>
      <trkpt lat="48.19811" lon="3.27979">
        <ele>71.4</ele>
      </trkpt>
      <trkpt lat="48.19803" lon="3.2791">
        <ele>70.8</ele>
      </trkpt>
      <trkpt lat="48.19797" lon="3.27857">
        <ele>70</ele>
      </trkpt>
      <trkpt lat="48.19788" lon="3.27856">
        <ele>70</ele>
      </trkpt>
      <trkpt lat="48.19773" lon="3.27856">
        <ele>70</ele>
      </trkpt>
      <trkpt lat="48.19767" lon="3.27787">
        <ele>69.1</ele>
      </trkpt>
      <trkpt lat="48.19753" lon="3.2779">
        <ele>69.4</ele>
      </trkpt>
      <trkpt lat="48.19751" lon="3.27724">
        <ele>68</ele>
      </trkpt>
      <trkpt lat="48.19725" lon="3.27714">
        <ele>68.3</ele>
      </trkpt>
      <trkpt lat="48.19727" lon="3.27694">
        <ele>69</ele>
      </trkpt>
      <trkpt lat="48.1973" lon="3.27668">
        <ele>68.7</ele>
      </trkpt>
      <trkpt lat="48.19736" lon="3.27631">
        <ele>63.6</ele>
      </trkpt>
      <trkpt lat="48.19745" lon="3.27571">
        <ele>66</ele>
      </trkpt>
      <trkpt lat="48.19754" lon="3.27517">
        <ele>68.8</ele>
      </trkpt>
      <trkpt lat="48.19761" lon="3.27443">
        <ele>67.6</ele>
      </trkpt>
      <trkpt lat="48.19766" lon="3.27401">
        <ele>66.7</ele>
      </trkpt>
      <trkpt lat="48.19778" lon="3.27318">
        <ele>67.1</ele>
      </trkpt>
      <trkpt lat="48.19785" lon="3.27238">
        <ele>66</ele>
      </trkpt>
      <trkpt lat="48.19796" lon="3.27165">
        <ele>66</ele>
        <time>2020-02-08T09:16:34Z</time>
      </trkpt>
      <trkpt lat="48.19807" lon="3.27066">
        <ele>66.6</ele>
        <time>2020-02-08T09:16:44Z</time>
      </trkpt>
      <trkpt lat="48.19816" lon="3.26993">
        <ele>67</ele>
        <time>2020-02-08T09:16:52Z</time>
      </trkpt>
      <trkpt lat="48.19826" lon="3.26911">
        <ele>66.5</ele>
        <time>2020-02-08T09:17:01Z</time>
      </trkpt>
      <trkpt lat="48.19829" lon="3.26868">
        <ele>66.8</ele>
        <time>2020-02-08T09:17:06Z</time>
      </trkpt>
      <trkpt lat="48.19829" lon="3.26859">
        <ele>66.9</ele>
        <time>2020-02-08T09:17:07Z</time>
      </trkpt>
      <trkpt lat="48.19828" lon="3.26851">
        <ele>66.9</ele>
        <time>2020-02-08T09:17:08Z</time>
      </trkpt>
      <trkpt lat="48.19825" lon="3.26838">
        <ele>66.9</ele>
        <time>2020-02-08T09:17:10Z</time>
      </trkpt>
      <trkpt lat="48.19823" lon="3.26832">
        <ele>67</ele>
        <time>2020-02-08T09:17:11Z</time>
      </trkpt>
      <trkpt lat="48.19819" lon="3.26824">
        <ele>67.2</ele>
        <time>2020-02-08T09:17:12Z</time>
      </trkpt>
      <trkpt lat="48.19814" lon="3.26818">
        <ele>67.2</ele>
        <time>2020-02-08T09:17:13Z</time>
      </trkpt>
      <trkpt lat="48.1981" lon="3.26815">
        <ele>67.1</ele>
        <time>2020-02-08T09:17:14Z</time>
      </trkpt>
      <trkpt lat="48.19805" lon="3.26813">
        <ele>67</ele>
        <time>2020-02-08T09:17:15Z</time>
      </trkpt>
      <trkpt lat="48.198" lon="3.26812">
        <ele>67</ele>
        <time>2020-02-08T09:17:16Z</time>
      </trkpt>
      <trkpt lat="48.19797" lon="3.26812">
        <ele>67</ele>
        <time>2020-02-08T09:17:17Z</time>
      </trkpt>
      <trkpt lat="48.19789" lon="3.2681">
        <ele>67</ele>
        <time>2020-02-08T09:17:19Z</time>
      </trkpt>
      <trkpt lat="48.19785" lon="3.26804">
        <ele>67.1</ele>
        <time>2020-02-08T09:17:21Z</time>
      </trkpt>
      <trkpt lat="48.19774" lon="3.26795">
        <ele>67.8</ele>
        <time>2020-02-08T09:17:24Z</time>
      </trkpt>
      <trkpt lat="48.19769" lon="3.26792">
        <ele>68</ele>
        <time>2020-02-08T09:17:26Z</time>
      </trkpt>
      <trkpt lat="48.19766" lon="3.26789">
        <ele>68.2</ele>
        <time>2020-02-08T09:17:28Z</time>
      </trkpt>
      <trkpt lat="48.19765" lon="3.26788">
        <ele>68.3</ele>
        <time>2020-02-08T09:17:34Z</time>
      </trkpt>
      <trkpt lat="48.19765" lon="3.26787">
        <ele>68.3</ele>
        <time>2020-02-08T09:17:40Z</time>
      </trkpt>
      <trkpt lat="48.19768" lon="3.26784">
        <ele>68.6</ele>
        <time>2020-02-08T09:17:47Z</time>
      </trkpt>
      <trkpt lat="48.19762" lon="3.26714">
        <ele>68.6</ele>
        <time>2020-02-08T09:18:03Z</time>
      </trkpt>
      <trkpt lat="48.1976" lon="3.26713">
        <ele>68.6</ele>
        <time>2020-02-08T09:18:04Z</time>
      </trkpt>
      <trkpt lat="48.19758" lon="3.26709">
        <ele>68.6</ele>
        <time>2020-02-08T09:18:11Z</time>
      </trkpt>
      <trkpt lat="48.19756" lon="3.26708">
        <ele>68.6</ele>
        <time>2020-02-08T09:18:18Z</time>
      </trkpt>
      <trkpt lat="48.19748" lon="3.26709">
        <ele>68.5</ele>
        <time>2020-02-08T09:18:22Z</time>
      </trkpt>
      <trkpt lat="48.19745" lon="3.2671">
        <ele>68.5</ele>
        <time>2020-02-08T09:18:23Z</time>
      </trkpt>
      <trkpt lat="48.19742" lon="3.26711">
        <ele>68.6</ele>
        <time>2020-02-08T09:18:24Z</time>
      </trkpt>
      <trkpt lat="48.19738" lon="3.26712">
        <ele>68.6</ele>
        <time>2020-02-08T09:18:25Z</time>
      </trkpt>
      <trkpt lat="48.19723" lon="3.26713">
        <ele>69</ele>
        <time>2020-02-08T09:18:29Z</time>
      </trkpt>
      <trkpt lat="48.19719" lon="3.26714">
        <ele>68.9</ele>
        <time>2020-02-08T09:18:30Z</time>
      </trkpt>
      <trkpt lat="48.19715" lon="3.26715">
        <ele>68.7</ele>
        <time>2020-02-08T09:18:31Z</time>
      </trkpt>
      <trkpt lat="48.19712" lon="3.26715">
        <ele>68.6</ele>
        <time>2020-02-08T09:18:32Z</time>
      </trkpt>
      <trkpt lat="48.19708" lon="3.26714">
        <ele>68.5</ele>
        <time>2020-02-08T09:18:33Z</time>
      </trkpt>
      <trkpt lat="48.19706" lon="3.26712">
        <ele>68.4</ele>
        <time>2020-02-08T09:18:34Z</time>
      </trkpt>
      <trkpt lat="48.19696" lon="3.26697">
        <ele>68.1</ele>
        <time>2020-02-08T09:18:40Z</time>
      </trkpt>
      <trkpt lat="48.19685" lon="3.26671">
        <ele>68.6</ele>
        <time>2020-02-08T09:18:45Z</time>
      </trkpt>
      <trkpt lat="48.1967" lon="3.26644">
        <ele>68</ele>
        <time>2020-02-08T09:18:53Z</time>
      </trkpt>
      <trkpt lat="48.19668" lon="3.2664">
        <ele>68</ele>
        <time>2020-02-08T09:18:54Z</time>
      </trkpt>
      <trkpt lat="48.19668" lon="3.26637">
        <ele>68</ele>
        <time>2020-02-08T09:18:55Z</time>
      </trkpt>
      <trkpt lat="48.19669" lon="3.26635">
        <ele>68</ele>
        <time>2020-02-08T09:18:56Z</time>
      </trkpt>
      <trkpt lat="48.19673" lon="3.26621">
        <ele>67.9</ele>
        <time>2020-02-08T09:19:03Z</time>
      </trkpt>
      <trkpt lat="48.19672" lon="3.26618">
        <ele>67.9</ele>
        <time>2020-02-08T09:19:05Z</time>
      </trkpt>
      <trkpt lat="48.19673" lon="3.26616">
        <ele>67.8</ele>
        <time>2020-02-08T09:19:06Z</time>
      </trkpt>
      <trkpt lat="48.19674" lon="3.26614">
        <ele>67.8</ele>
        <time>2020-02-08T09:19:07Z</time>
      </trkpt>
      <trkpt lat="48.19674" lon="3.2661">
        <ele>67.7</ele>
        <time>2020-02-08T09:19:08Z</time>
      </trkpt>
      <trkpt lat="48.19674" lon="3.26605">
        <ele>67.6</ele>
        <time>2020-02-08T09:19:09Z</time>
      </trkpt>
      <trkpt lat="48.19674" lon="3.26599">
        <ele>67.4</ele>
        <time>2020-02-08T09:19:10Z</time>
      </trkpt>
      <trkpt lat="48.19674" lon="3.26593">
        <ele>67.3</ele>
        <time>2020-02-08T09:19:11Z</time>
      </trkpt>
      <trkpt lat="48.19675" lon="3.26577">
        <ele>66.9</ele>
        <time>2020-02-08T09:19:14Z</time>
      </trkpt>
      <trkpt lat="48.19677" lon="3.26572">
        <ele>66.8</ele>
        <time>2020-02-08T09:19:16Z</time>
      </trkpt>
      <trkpt lat="48.19697" lon="3.26561">
        <ele>66.3</ele>
        <time>2020-02-08T09:19:23Z</time>
      </trkpt>
      <trkpt lat="48.19724" lon="3.2655">
        <ele>67.1</ele>
        <time>2020-02-08T09:19:31Z</time>
      </trkpt>
      <trkpt lat="48.19746" lon="3.26539">
        <ele>66.7</ele>
        <time>2020-02-08T09:19:38Z</time>
      </trkpt>
      <trkpt lat="48.19768" lon="3.26531">
        <ele>66.4</ele>
        <time>2020-02-08T09:19:51Z</time>
      </trkpt>
      <trkpt lat="48.19769" lon="3.26531">
        <ele>66.4</ele>
        <time>2020-02-08T09:20:03Z</time>
      </trkpt>
      <trkpt lat="48.19774" lon="3.26527">
        <ele>66.2</ele>
        <time>2020-02-08T09:20:15Z</time>
      </trkpt>
      <trkpt lat="48.19776" lon="3.26525">
        <ele>66.2</ele>
        <time>2020-02-08T09:20:18Z</time>
      </trkpt>
      <trkpt lat="48.19779" lon="3.26523">
        <ele>66.2</ele>
        <time>2020-02-08T09:20:19Z</time>
      </trkpt>
      <trkpt lat="48.19782" lon="3.26522">
        <ele>66.2</ele>
        <time>2020-02-08T09:20:20Z</time>
      </trkpt>
      <trkpt lat="48.19802" lon="3.26514">
        <ele>66.1</ele>
        <time>2020-02-08T09:20:26Z</time>
      </trkpt>
      <trkpt lat="48.19838" lon="3.26493">
        <ele>66.9</ele>
        <time>2020-02-08T09:20:34Z</time>
      </trkpt>
      <trkpt lat="48.1988" lon="3.26467">
        <ele>66.7</ele>
        <time>2020-02-08T09:20:43Z</time>
      </trkpt>
      <trkpt lat="48.19923" lon="3.26447">
        <ele>67.6</ele>
        <time>2020-02-08T09:20:52Z</time>
      </trkpt>
      <trkpt lat="48.19936" lon="3.2644">
        <ele>67.5</ele>
        <time>2020-02-08T09:20:55Z</time>
      </trkpt>
      <trkpt lat="48.19965" lon="3.2643">
        <ele>68</ele>
        <time>2020-02-08T09:22:10Z</time>
      </trkpt>
      <trkpt lat="48.19974" lon="3.2643">
        <ele>68.1</ele>
        <time>2020-02-08T09:22:12Z</time>
      </trkpt>
      <trkpt lat="48.19979" lon="3.26429">
        <ele>68.2</ele>
        <time>2020-02-08T09:22:13Z</time>
      </trkpt>
      <trkpt lat="48.20031" lon="3.26431">
        <ele>68.5</ele>
        <time>2020-02-08T09:22:22Z</time>
      </trkpt>
      <trkpt lat="48.20098" lon="3.26442">
        <ele>68.7</ele>
        <time>2020-02-08T09:22:33Z</time>
      </trkpt>
      <trkpt lat="48.20114" lon="3.26442">
        <ele>69.3</ele>
        <time>2020-02-08T09:22:36Z</time>
      </trkpt>
      <trkpt lat="48.20119" lon="3.26444">
        <ele>69.3</ele>
        <time>2020-02-08T09:22:37Z</time>
      </trkpt>
      <trkpt lat="48.20157" lon="3.26453">
        <ele>69.8</ele>
        <time>2020-02-08T09:22:44Z</time>
      </trkpt>
      <trkpt lat="48.20172" lon="3.26455">
        <ele>70.2</ele>
        <time>2020-02-08T09:22:47Z</time>
      </trkpt>
      <trkpt lat="48.20176" lon="3.26453">
        <ele>70.3</ele>
        <time>2020-02-08T09:22:48Z</time>
      </trkpt>
      <trkpt lat="48.20185" lon="3.26449">
        <ele>70.7</ele>
        <time>2020-02-08T09:22:50Z</time>
      </trkpt>
      <trkpt lat="48.2019" lon="3.26449">
        <ele>70.8</ele>
        <time>2020-02-08T09:22:51Z</time>
      </trkpt>
      <trkpt lat="48.20195" lon="3.26448">
        <ele>71</ele>
        <time>2020-02-08T09:22:52Z</time>
      </trkpt>
      <trkpt lat="48.20199" lon="3.26445">
        <ele>71</ele>
        <time>2020-02-08T09:22:53Z</time>
      </trkpt>
      <trkpt lat="48.20202" lon="3.26443">
        <ele>71.2</ele>
        <time>2020-02-08T09:22:54Z</time>
      </trkpt>
      <trkpt lat="48.20206" lon="3.26441">
        <ele>71.5</ele>
        <time>2020-02-08T09:22:55Z</time>
      </trkpt>
      <trkpt lat="48.2021" lon="3.2644">
        <ele>71.7</ele>
        <time>2020-02-08T09:22:56Z</time>
      </trkpt>
      <trkpt lat="48.20233" lon="3.26432">
        <ele>73.2</ele>
        <time>2020-02-08T09:23:03Z</time>
      </trkpt>
      <trkpt lat="48.20254" lon="3.26421">
        <ele>75</ele>
        <time>2020-02-08T09:23:11Z</time>
      </trkpt>
      <trkpt lat="48.2027" lon="3.26412">
        <ele>75.1</ele>
        <time>2020-02-08T09:23:18Z</time>
      </trkpt>
      <trkpt lat="48.2029" lon="3.26404">
        <ele>75.6</ele>
        <time>2020-02-08T09:23:26Z</time>
      </trkpt>
      <trkpt lat="48.20315" lon="3.26399">
        <ele>75.8</ele>
        <time>2020-02-08T09:23:33Z</time>
      </trkpt>
      <trkpt lat="48.20334" lon="3.26402">
        <ele>74.7</ele>
        <time>2020-02-08T09:23:36Z</time>
      </trkpt>
      <trkpt lat="48.20359" lon="3.26405">
        <ele>74.5</ele>
        <time>2020-02-08T09:23:39Z</time>
      </trkpt>
      <trkpt lat="48.20366" lon="3.26404">
        <ele>74.9</ele>
        <time>2020-02-08T09:23:40Z</time>
      </trkpt>
      <trkpt lat="48.20379" lon="3.26403">
        <ele>75.6</ele>
        <time>2020-02-08T09:23:42Z</time>
      </trkpt>
      <trkpt lat="48.20384" lon="3.26403">
        <ele>75.8</ele>
        <time>2020-02-08T09:23:43Z</time>
      </trkpt>
      <trkpt lat="48.20424" lon="3.26408">
        <ele>76.9</ele>
        <time>2020-02-08T09:23:52Z</time>
      </trkpt>
      <trkpt lat="48.20466" lon="3.26417">
        <ele>79.6</ele>
        <time>2020-02-08T09:24:01Z</time>
      </trkpt>
      <trkpt lat="48.20489" lon="3.26428">
        <ele>78</ele>
        <time>2020-02-08T09:24:08Z</time>
      </trkpt>
      <trkpt lat="48.20518" lon="3.26445">
        <ele>77.1</ele>
        <time>2020-02-08T09:24:16Z</time>
      </trkpt>
      <trkpt lat="48.20539" lon="3.2646">
        <ele>74.6</ele>
        <time>2020-02-08T09:24:20Z</time>
      </trkpt>
      <trkpt lat="48.20552" lon="3.26466">
        <ele>74</ele>
        <time>2020-02-08T09:24:22Z</time>
      </trkpt>
      <trkpt lat="48.20583" lon="3.26472">
        <ele>75</ele>
        <time>2020-02-08T09:24:28Z</time>
      </trkpt>
      <trkpt lat="48.206" lon="3.26474">
        <ele>76.3</ele>
        <time>2020-02-08T09:24:34Z</time>
      </trkpt>
      <trkpt lat="48.20612" lon="3.26466">
        <ele>79.8</ele>
        <time>2020-02-08T09:24:42Z</time>
      </trkpt>
      <trkpt lat="48.20621" lon="3.26462">
        <ele>80.7</ele>
        <time>2020-02-08T09:24:49Z</time>
      </trkpt>
      <trkpt lat="48.20632" lon="3.26458">
        <ele>81.7</ele>
        <time>2020-02-08T09:24:56Z</time>
      </trkpt>
      <trkpt lat="48.20642" lon="3.26453">
        <ele>83</ele>
        <time>2020-02-08T09:25:03Z</time>
      </trkpt>
      <trkpt lat="48.20649" lon="3.2645">
        <ele>83.4</ele>
        <time>2020-02-08T09:25:08Z</time>
      </trkpt>
      <trkpt lat="48.2065" lon="3.26449">
        <ele>83.7</ele>
        <time>2020-02-08T09:25:09Z</time>
      </trkpt>
      <trkpt lat="48.20652" lon="3.26448">
        <ele>83.8</ele>
        <time>2020-02-08T09:25:10Z</time>
      </trkpt>
      <trkpt lat="48.20653" lon="3.26448">
        <ele>83.8</ele>
        <time>2020-02-08T09:25:11Z</time>
      </trkpt>
      <trkpt lat="48.20655" lon="3.26447">
        <ele>84</ele>
        <time>2020-02-08T09:25:12Z</time>
      </trkpt>
      <trkpt lat="48.20664" lon="3.26443">
        <ele>84.7</ele>
        <time>2020-02-08T09:25:19Z</time>
      </trkpt>
      <trkpt lat="48.20675" lon="3.26436">
        <ele>85.8</ele>
        <time>2020-02-08T09:25:26Z</time>
      </trkpt>
      <trkpt lat="48.20684" lon="3.26427">
        <ele>87.8</ele>
        <time>2020-02-08T09:25:33Z</time>
      </trkpt>
      <trkpt lat="48.20686" lon="3.26426">
        <ele>87.9</ele>
        <time>2020-02-08T09:25:34Z</time>
      </trkpt>
      <trkpt lat="48.20688" lon="3.26425">
        <ele>87.9</ele>
        <time>2020-02-08T09:25:35Z</time>
      </trkpt>
      <trkpt lat="48.20689" lon="3.26424">
        <ele>88.1</ele>
        <time>2020-02-08T09:25:36Z</time>
      </trkpt>
      <trkpt lat="48.2069" lon="3.26423">
        <ele>88.4</ele>
        <time>2020-02-08T09:25:37Z</time>
      </trkpt>
      <trkpt lat="48.20691" lon="3.26422">
        <ele>88.6</ele>
        <time>2020-02-08T09:25:38Z</time>
      </trkpt>
      <trkpt lat="48.20693" lon="3.26421">
        <ele>88.6</ele>
        <time>2020-02-08T09:25:39Z</time>
      </trkpt>
      <trkpt lat="48.20695" lon="3.2642">
        <ele>88.7</ele>
        <time>2020-02-08T09:25:40Z</time>
      </trkpt>
      <trkpt lat="48.20701" lon="3.26415">
        <ele>89.7</ele>
        <time>2020-02-08T09:25:44Z</time>
      </trkpt>
      <trkpt lat="48.20703" lon="3.26414">
        <ele>89.8</ele>
        <time>2020-02-08T09:25:45Z</time>
      </trkpt>
      <trkpt lat="48.20704" lon="3.26412">
        <ele>90.2</ele>
        <time>2020-02-08T09:25:46Z</time>
      </trkpt>
      <trkpt lat="48.20706" lon="3.26411">
        <ele>90.3</ele>
        <time>2020-02-08T09:25:47Z</time>
      </trkpt>
      <trkpt lat="48.20708" lon="3.2641">
        <ele>90.3</ele>
        <time>2020-02-08T09:25:48Z</time>
      </trkpt>
      <trkpt lat="48.20725" lon="3.26405">
        <ele>90.4</ele>
        <time>2020-02-08T09:25:57Z</time>
      </trkpt>
      <trkpt lat="48.20739" lon="3.26401">
        <ele>91.9</ele>
        <time>2020-02-08T09:26:05Z</time>
      </trkpt>
      <trkpt lat="48.20756" lon="3.26396">
        <ele>93</ele>
        <time>2020-02-08T09:26:13Z</time>
      </trkpt>
      <trkpt lat="48.20771" lon="3.26392">
        <ele>93.6</ele>
        <time>2020-02-08T09:26:21Z</time>
      </trkpt>
      <trkpt lat="48.20785" lon="3.26388">
        <ele>94.9</ele>
        <time>2020-02-08T09:26:28Z</time>
      </trkpt>
      <trkpt lat="48.20807" lon="3.26387">
        <ele>94.6</ele>
        <time>2020-02-08T09:26:38Z</time>
      </trkpt>
      <trkpt lat="48.20826" lon="3.26387">
        <ele>95.3</ele>
        <time>2020-02-08T09:26:46Z</time>
      </trkpt>
      <trkpt lat="48.20844" lon="3.26381">
        <ele>97.1</ele>
        <time>2020-02-08T09:26:54Z</time>
      </trkpt>
      <trkpt lat="48.20864" lon="3.26368">
        <ele>99</ele>
        <time>2020-02-08T09:27:03Z</time>
      </trkpt>
      <trkpt lat="48.2088" lon="3.26358">
        <ele>98.8</ele>
        <time>2020-02-08T09:27:11Z</time>
      </trkpt>
      <trkpt lat="48.20897" lon="3.26349">
        <ele>98.7</ele>
        <time>2020-02-08T09:27:19Z</time>
      </trkpt>
      <trkpt lat="48.20918" lon="3.26346">
        <ele>98.4</ele>
        <time>2020-02-08T09:27:27Z</time>
      </trkpt>
      <trkpt lat="48.20938" lon="3.26345">
        <ele>99.3</ele>
        <time>2020-02-08T09:27:35Z</time>
      </trkpt>
      <trkpt lat="48.20957" lon="3.26348">
        <ele>100.2</ele>
        <time>2020-02-08T09:27:43Z</time>
      </trkpt>
      <trkpt lat="48.20984" lon="3.26357">
        <ele>101.7</ele>
        <time>2020-02-08T09:27:55Z</time>
      </trkpt>
      <trkpt lat="48.20997" lon="3.26361">
        <ele>102.6</ele>
        <time>2020-02-08T09:28:01Z</time>
      </trkpt>
      <trkpt lat="48.20999" lon="3.26361">
        <ele>102.9</ele>
        <time>2020-02-08T09:28:02Z</time>
      </trkpt>
      <trkpt lat="48.21" lon="3.26361">
        <ele>103</ele>
        <time>2020-02-08T09:28:03Z</time>
      </trkpt>
      <trkpt lat="48.21002" lon="3.26362">
        <ele>103.4</ele>
        <time>2020-02-08T09:28:04Z</time>
      </trkpt>
      <trkpt lat="48.21004" lon="3.26362">
        <ele>103.9</ele>
        <time>2020-02-08T09:28:05Z</time>
      </trkpt>
      <trkpt lat="48.21005" lon="3.26363">
        <ele>104</ele>
        <time>2020-02-08T09:28:06Z</time>
      </trkpt>
      <trkpt lat="48.21008" lon="3.26363">
        <ele>104.7</ele>
        <time>2020-02-08T09:28:07Z</time>
      </trkpt>
      <trkpt lat="48.21017" lon="3.26371">
        <ele>105.4</ele>
        <time>2020-02-08T09:28:12Z</time>
      </trkpt>
      <trkpt lat="48.21031" lon="3.26374">
        <ele>107.8</ele>
        <time>2020-02-08T09:28:20Z</time>
      </trkpt>
      <trkpt lat="48.21044" lon="3.26378">
        <ele>109.1</ele>
        <time>2020-02-08T09:28:27Z</time>
      </trkpt>
      <trkpt lat="48.21052" lon="3.26378">
        <ele>110.5</ele>
        <time>2020-02-08T09:28:33Z</time>
      </trkpt>
      <trkpt lat="48.21056" lon="3.26377">
        <ele>111.5</ele>
        <time>2020-02-08T09:28:40Z</time>
      </trkpt>
      <trkpt lat="48.21062" lon="3.26375">
        <ele>112.6</ele>
        <time>2020-02-08T09:28:49Z</time>
      </trkpt>
      <trkpt lat="48.21064" lon="3.26373">
        <ele>113.2</ele>
        <time>2020-02-08T09:28:52Z</time>
      </trkpt>
      <trkpt lat="48.21065" lon="3.26372">
        <ele>113.5</ele>
        <time>2020-02-08T09:28:53Z</time>
      </trkpt>
      <trkpt lat="48.21066" lon="3.26371">
        <ele>113.8</ele>
        <time>2020-02-08T09:28:54Z</time>
      </trkpt>
      <trkpt lat="48.21067" lon="3.2637">
        <ele>114.1</ele>
        <time>2020-02-08T09:28:55Z</time>
      </trkpt>
      <trkpt lat="48.21068" lon="3.26369">
        <ele>114.4</ele>
        <time>2020-02-08T09:28:56Z</time>
      </trkpt>
      <trkpt lat="48.21069" lon="3.26368">
        <ele>114.6</ele>
        <time>2020-02-08T09:28:57Z</time>
      </trkpt>
      <trkpt lat="48.2107" lon="3.26366">
        <ele>115</ele>
        <time>2020-02-08T09:29:00Z</time>
      </trkpt>
      <trkpt lat="48.21071" lon="3.26364">
        <ele>115.5</ele>
        <time>2020-02-08T09:29:01Z</time>
      </trkpt>
      <trkpt lat="48.21072" lon="3.26363">
        <ele>115.7</ele>
        <time>2020-02-08T09:29:02Z</time>
      </trkpt>
      <trkpt lat="48.21073" lon="3.26362">
        <ele>115.8</ele>
        <time>2020-02-08T09:29:03Z</time>
      </trkpt>
      <trkpt lat="48.21074" lon="3.2636">
        <ele>116.1</ele>
        <time>2020-02-08T09:29:04Z</time>
      </trkpt>
      <trkpt lat="48.21075" lon="3.26357">
        <ele>116.3</ele>
        <time>2020-02-08T09:29:05Z</time>
      </trkpt>
      <trkpt lat="48.21081" lon="3.26348">
        <ele>116.6</ele>
        <time>2020-02-08T09:29:11Z</time>
      </trkpt>
      <trkpt lat="48.21082" lon="3.26347">
        <ele>116.6</ele>
        <time>2020-02-08T09:29:12Z</time>
      </trkpt>
      <trkpt lat="48.21083" lon="3.26346">
        <ele>116.6</ele>
        <time>2020-02-08T09:29:13Z</time>
      </trkpt>
      <trkpt lat="48.21085" lon="3.26337">
        <ele>116.7</ele>
        <time>2020-02-08T09:29:29Z</time>
      </trkpt>
      <trkpt lat="48.21083" lon="3.26336">
        <ele>116.9</ele>
        <time>2020-02-08T09:29:30Z</time>
      </trkpt>
      <trkpt lat="48.21081" lon="3.26334">
        <ele>117.3</ele>
        <time>2020-02-08T09:29:31Z</time>
      </trkpt>
      <trkpt lat="48.21079" lon="3.26331">
        <ele>117.8</ele>
        <time>2020-02-08T09:29:32Z</time>
      </trkpt>
      <trkpt lat="48.21069" lon="3.26315">
        <ele>120</ele>
        <time>2020-02-08T09:29:39Z</time>
      </trkpt>
      <trkpt lat="48.21062" lon="3.26305">
        <ele>121.3</ele>
        <time>2020-02-08T09:29:44Z</time>
      </trkpt>
      <trkpt lat="48.21061" lon="3.26304">
        <ele>121.5</ele>
        <time>2020-02-08T09:29:45Z</time>
      </trkpt>
      <trkpt lat="48.21048" lon="3.26287">
        <ele>123.7</ele>
        <time>2020-02-08T09:29:55Z</time>
      </trkpt>
      <trkpt lat="48.21037" lon="3.26277">
        <ele>125.7</ele>
        <time>2020-02-08T09:30:03Z</time>
      </trkpt>
      <trkpt lat="48.2102" lon="3.26263">
        <ele>127.8</ele>
        <time>2020-02-08T09:30:14Z</time>
      </trkpt>
      <trkpt lat="48.21001" lon="3.26248">
        <ele>131</ele>
        <time>2020-02-08T09:30:25Z</time>
      </trkpt>
      <trkpt lat="48.2099" lon="3.26238">
        <ele>130.9</ele>
        <time>2020-02-08T09:30:32Z</time>
      </trkpt>
      <trkpt lat="48.20976" lon="3.26222">
        <ele>133.7</ele>
        <time>2020-02-08T09:30:41Z</time>
      </trkpt>
      <trkpt lat="48.20958" lon="3.26201">
        <ele>134.8</ele>
        <time>2020-02-08T09:30:52Z</time>
      </trkpt>
      <trkpt lat="48.20943" lon="3.26183">
        <ele>137.4</ele>
        <time>2020-02-08T09:31:02Z</time>
      </trkpt>
      <trkpt lat="48.20931" lon="3.26172">
        <ele>138.3</ele>
        <time>2020-02-08T09:31:09Z</time>
      </trkpt>
      <trkpt lat="48.20918" lon="3.26161">
        <ele>140.6</ele>
        <time>2020-02-08T09:31:17Z</time>
      </trkpt>
      <trkpt lat="48.209" lon="3.26149">
        <ele>142.7</ele>
        <time>2020-02-08T09:31:26Z</time>
      </trkpt>
      <trkpt lat="48.20883" lon="3.26141">
        <ele>144.1</ele>
        <time>2020-02-08T09:31:33Z</time>
      </trkpt>
      <trkpt lat="48.20853" lon="3.26137">
        <ele>144.5</ele>
        <time>2020-02-08T09:31:43Z</time>
      </trkpt>
      <trkpt lat="48.20831" lon="3.2613">
        <ele>146.6</ele>
        <time>2020-02-08T09:31:52Z</time>
      </trkpt>
      <trkpt lat="48.20812" lon="3.26116">
        <ele>149.6</ele>
        <time>2020-02-08T09:32:01Z</time>
      </trkpt>
      <trkpt lat="48.20796" lon="3.26102">
        <ele>151.4</ele>
        <time>2020-02-08T09:32:09Z</time>
      </trkpt>
      <trkpt lat="48.20777" lon="3.26086">
        <ele>152.8</ele>
        <time>2020-02-08T09:32:18Z</time>
      </trkpt>
      <trkpt lat="48.20768" lon="3.26077">
        <ele>153.2</ele>
        <time>2020-02-08T09:32:22Z</time>
      </trkpt>
      <trkpt lat="48.20766" lon="3.26074">
        <ele>153.2</ele>
        <time>2020-02-08T09:32:23Z</time>
      </trkpt>
      <trkpt lat="48.20739" lon="3.26045">
        <ele>153.8</ele>
        <time>2020-02-08T09:32:33Z</time>
      </trkpt>
      <trkpt lat="48.20729" lon="3.26034">
        <ele>153.8</ele>
        <time>2020-02-08T09:32:36Z</time>
      </trkpt>
      <trkpt lat="48.20698" lon="3.25999">
        <ele>151.8</ele>
        <time>2020-02-08T09:32:44Z</time>
      </trkpt>
      <trkpt lat="48.20688" lon="3.25989">
        <ele>151.7</ele>
        <time>2020-02-08T09:32:46Z</time>
      </trkpt>
      <trkpt lat="48.20652" lon="3.25968">
        <ele>152.8</ele>
        <time>2020-02-08T09:32:53Z</time>
      </trkpt>
      <trkpt lat="48.2062" lon="3.25958">
        <ele>153.7</ele>
        <time>2020-02-08T09:33:00Z</time>
      </trkpt>
      <trkpt lat="48.20582" lon="3.25954">
        <ele>155.4</ele>
        <time>2020-02-08T09:33:09Z</time>
      </trkpt>
      <trkpt lat="48.20546" lon="3.25956">
        <ele>157.4</ele>
        <time>2020-02-08T09:33:18Z</time>
      </trkpt>
      <trkpt lat="48.20514" lon="3.25956">
        <ele>158.7</ele>
        <time>2020-02-08T09:33:26Z</time>
      </trkpt>
      <trkpt lat="48.20483" lon="3.25954">
        <ele>159.2</ele>
        <time>2020-02-08T09:33:34Z</time>
      </trkpt>
      <trkpt lat="48.20475" lon="3.25954">
        <ele>159.3</ele>
        <time>2020-02-08T09:33:36Z</time>
      </trkpt>
      <trkpt lat="48.20471" lon="3.25953">
        <ele>159.3</ele>
        <time>2020-02-08T09:33:37Z</time>
      </trkpt>
      <trkpt lat="48.20467" lon="3.25952">
        <ele>159.3</ele>
        <time>2020-02-08T09:33:38Z</time>
      </trkpt>
      <trkpt lat="48.20436" lon="3.25945">
        <ele>159.3</ele>
        <time>2020-02-08T09:33:45Z</time>
      </trkpt>
      <trkpt lat="48.20392" lon="3.25928">
        <ele>158.7</ele>
        <time>2020-02-08T09:33:54Z</time>
      </trkpt>
      <trkpt lat="48.2037" lon="3.25917">
        <ele>159</ele>
        <time>2020-02-08T09:33:58Z</time>
      </trkpt>
      <trkpt lat="48.20365" lon="3.25914">
        <ele>159.1</ele>
        <time>2020-02-08T09:33:59Z</time>
      </trkpt>
      <trkpt lat="48.20314" lon="3.25885">
        <ele>160</ele>
        <time>2020-02-08T09:34:10Z</time>
      </trkpt>
      <trkpt lat="48.20269" lon="3.25864">
        <ele>160.9</ele>
        <time>2020-02-08T09:34:20Z</time>
      </trkpt>
      <trkpt lat="48.20219" lon="3.25852">
        <ele>162</ele>
        <time>2020-02-08T09:34:31Z</time>
      </trkpt>
      <trkpt lat="48.20179" lon="3.25839">
        <ele>163.1</ele>
        <time>2020-02-08T09:34:40Z</time>
      </trkpt>
      <trkpt lat="48.20131" lon="3.25824">
        <ele>164.2</ele>
        <time>2020-02-08T09:34:51Z</time>
      </trkpt>
      <trkpt lat="48.20082" lon="3.25814">
        <ele>164</ele>
        <time>2020-02-08T09:35:02Z</time>
      </trkpt>
      <trkpt lat="48.20077" lon="3.25813">
        <ele>164.2</ele>
        <time>2020-02-08T09:35:03Z</time>
      </trkpt>
      <trkpt lat="48.2004" lon="3.25794">
        <ele>165.1</ele>
        <time>2020-02-08T09:35:11Z</time>
      </trkpt>
      <trkpt lat="48.20004" lon="3.25767">
        <ele>166</ele>
        <time>2020-02-08T09:35:20Z</time>
      </trkpt>
      <trkpt lat="48.19984" lon="3.25753">
        <ele>166</ele>
        <time>2020-02-08T09:35:25Z</time>
      </trkpt>
      <trkpt lat="48.19944" lon="3.25725">
        <ele>167</ele>
        <time>2020-02-08T09:35:35Z</time>
      </trkpt>
      <trkpt lat="48.1991" lon="3.25697">
        <ele>168.3</ele>
        <time>2020-02-08T09:35:44Z</time>
      </trkpt>
      <trkpt lat="48.19879" lon="3.25671">
        <ele>169.7</ele>
        <time>2020-02-08T09:35:53Z</time>
      </trkpt>
      <trkpt lat="48.19852" lon="3.25648">
        <ele>170.5</ele>
        <time>2020-02-08T09:36:01Z</time>
      </trkpt>
      <trkpt lat="48.19849" lon="3.25645">
        <ele>170.6</ele>
        <time>2020-02-08T09:36:02Z</time>
      </trkpt>
      <trkpt lat="48.19816" lon="3.25605">
        <ele>170.1</ele>
        <time>2020-02-08T09:36:11Z</time>
      </trkpt>
      <trkpt lat="48.19787" lon="3.25573">
        <ele>170.9</ele>
        <time>2020-02-08T09:36:19Z</time>
      </trkpt>
      <trkpt lat="48.19783" lon="3.2557">
        <ele>170.9</ele>
        <time>2020-02-08T09:36:20Z</time>
      </trkpt>
      <trkpt lat="48.19779" lon="3.25566">
        <ele>171</ele>
        <time>2020-02-08T09:36:21Z</time>
      </trkpt>
      <trkpt lat="48.19768" lon="3.25556">
        <ele>171</ele>
        <time>2020-02-08T09:36:24Z</time>
      </trkpt>
      <trkpt lat="48.19727" lon="3.25531">
        <ele>171</ele>
        <time>2020-02-08T09:36:34Z</time>
      </trkpt>
      <trkpt lat="48.197" lon="3.25521">
        <ele>171</ele>
        <time>2020-02-08T09:36:40Z</time>
      </trkpt>
      <trkpt lat="48.19683" lon="3.2551">
        <ele>171</ele>
        <time>2020-02-08T09:36:45Z</time>
      </trkpt>
      <trkpt lat="48.19662" lon="3.25484">
        <ele>171</ele>
        <time>2020-02-08T09:36:53Z</time>
      </trkpt>
      <trkpt lat="48.19647" lon="3.25466">
        <ele>171</ele>
        <time>2020-02-08T09:36:59Z</time>
      </trkpt>
      <trkpt lat="48.19631" lon="3.25441">
        <ele>171.4</ele>
        <time>2020-02-08T09:37:07Z</time>
      </trkpt>
      <trkpt lat="48.19614" lon="3.25431">
        <ele>171.9</ele>
        <time>2020-02-08T09:37:14Z</time>
      </trkpt>
      <trkpt lat="48.19602" lon="3.25423">
        <ele>171.7</ele>
        <time>2020-02-08T09:37:19Z</time>
      </trkpt>
      <trkpt lat="48.19584" lon="3.25406">
        <ele>171.4</ele>
        <time>2020-02-08T09:37:26Z</time>
      </trkpt>
      <trkpt lat="48.19559" lon="3.25383">
        <ele>171.1</ele>
        <time>2020-02-08T09:37:33Z</time>
      </trkpt>
      <trkpt lat="48.19556" lon="3.2538">
        <ele>171</ele>
        <time>2020-02-08T09:37:34Z</time>
      </trkpt>
      <trkpt lat="48.19525" lon="3.25352">
        <ele>170.3</ele>
        <time>2020-02-08T09:37:42Z</time>
      </trkpt>
      <trkpt lat="48.19502" lon="3.25332">
        <ele>170.1</ele>
        <time>2020-02-08T09:37:48Z</time>
      </trkpt>
      <trkpt lat="48.19475" lon="3.25308">
        <ele>169.9</ele>
        <time>2020-02-08T09:37:56Z</time>
      </trkpt>
      <trkpt lat="48.19438" lon="3.25273">
        <ele>169.1</ele>
        <time>2020-02-08T09:38:07Z</time>
      </trkpt>
      <trkpt lat="48.19406" lon="3.25248">
        <ele>168.7</ele>
        <time>2020-02-08T09:38:15Z</time>
      </trkpt>
      <trkpt lat="48.19369" lon="3.2522">
        <ele>168.4</ele>
        <time>2020-02-08T09:38:24Z</time>
      </trkpt>
      <trkpt lat="48.19348" lon="3.25202">
        <ele>168.9</ele>
        <time>2020-02-08T09:38:31Z</time>
      </trkpt>
      <trkpt lat="48.19322" lon="3.25179">
        <ele>169.6</ele>
        <time>2020-02-08T09:38:40Z</time>
      </trkpt>
      <trkpt lat="48.19292" lon="3.25149">
        <ele>169.8</ele>
        <time>2020-02-08T09:38:50Z</time>
      </trkpt>
      <trkpt lat="48.19269" lon="3.25129">
        <ele>169.8</ele>
        <time>2020-02-08T09:38:57Z</time>
      </trkpt>
      <trkpt lat="48.19242" lon="3.25107">
        <ele>169.8</ele>
        <time>2020-02-08T09:39:05Z</time>
      </trkpt>
      <trkpt lat="48.19219" lon="3.25085">
        <ele>169.8</ele>
        <time>2020-02-08T09:39:12Z</time>
      </trkpt>
      <trkpt lat="48.19196" lon="3.25068">
        <ele>169.1</ele>
        <time>2020-02-08T09:39:19Z</time>
      </trkpt>
      <trkpt lat="48.19188" lon="3.25058">
        <ele>169</ele>
        <time>2020-02-08T09:39:22Z</time>
      </trkpt>
      <trkpt lat="48.19187" lon="3.25054">
        <ele>169.1</ele>
        <time>2020-02-08T09:39:23Z</time>
      </trkpt>
      <trkpt lat="48.19188" lon="3.25049">
        <ele>169.2</ele>
        <time>2020-02-08T09:39:24Z</time>
      </trkpt>
      <trkpt lat="48.19189" lon="3.25044">
        <ele>169.4</ele>
        <time>2020-02-08T09:39:25Z</time>
      </trkpt>
      <trkpt lat="48.19191" lon="3.25039">
        <ele>169.6</ele>
        <time>2020-02-08T09:39:26Z</time>
      </trkpt>
      <trkpt lat="48.19192" lon="3.25034">
        <ele>169.8</ele>
        <time>2020-02-08T09:39:27Z</time>
      </trkpt>
      <trkpt lat="48.19193" lon="3.25029">
        <ele>170</ele>
        <time>2020-02-08T09:39:28Z</time>
      </trkpt>
      <trkpt lat="48.19194" lon="3.25024">
        <ele>170</ele>
        <time>2020-02-08T09:39:29Z</time>
      </trkpt>
      <trkpt lat="48.192" lon="3.25002">
        <ele>170</ele>
        <time>2020-02-08T09:39:33Z</time>
      </trkpt>
      <trkpt lat="48.19202" lon="3.24996">
        <ele>170</ele>
        <time>2020-02-08T09:39:34Z</time>
      </trkpt>
      <trkpt lat="48.19216" lon="3.2493">
        <ele>170</ele>
        <time>2020-02-08T09:39:44Z</time>
      </trkpt>
      <trkpt lat="48.19221" lon="3.24901">
        <ele>169.5</ele>
        <time>2020-02-08T09:39:48Z</time>
      </trkpt>
      <trkpt lat="48.19226" lon="3.24861">
        <ele>169</ele>
        <time>2020-02-08T09:39:53Z</time>
      </trkpt>
      <trkpt lat="48.19234" lon="3.24797">
        <ele>168.3</ele>
        <time>2020-02-08T09:40:00Z</time>
      </trkpt>
      <trkpt lat="48.19243" lon="3.24739">
        <ele>166.2</ele>
        <time>2020-02-08T09:40:06Z</time>
      </trkpt>
      <trkpt lat="48.19251" lon="3.24686">
        <ele>164.7</ele>
        <time>2020-02-08T09:40:11Z</time>
      </trkpt>
      <trkpt lat="48.1925" lon="3.24675">
        <ele>164.3</ele>
        <time>2020-02-08T09:40:12Z</time>
      </trkpt>
      <trkpt lat="48.19243" lon="3.24613">
        <ele>162.3</ele>
        <time>2020-02-08T09:40:18Z</time>
      </trkpt>
      <trkpt lat="48.19239" lon="3.24578">
        <ele>160.6</ele>
        <time>2020-02-08T09:40:22Z</time>
      </trkpt>
      <trkpt lat="48.19237" lon="3.24571">
        <ele>160.5</ele>
        <time>2020-02-08T09:40:23Z</time>
      </trkpt>
      <trkpt lat="48.19234" lon="3.24565">
        <ele>160.5</ele>
        <time>2020-02-08T09:40:24Z</time>
      </trkpt>
      <trkpt lat="48.1923" lon="3.24559">
        <ele>160.6</ele>
        <time>2020-02-08T09:40:25Z</time>
      </trkpt>
      <trkpt lat="48.19226" lon="3.24556">
        <ele>160.7</ele>
        <time>2020-02-08T09:40:26Z</time>
      </trkpt>
      <trkpt lat="48.19222" lon="3.24553">
        <ele>161</ele>
        <time>2020-02-08T09:40:27Z</time>
      </trkpt>
      <trkpt lat="48.19202" lon="3.24532">
        <ele>162.5</ele>
        <time>2020-02-08T09:40:34Z</time>
      </trkpt>
      <trkpt lat="48.19179" lon="3.2451">
        <ele>165</ele>
        <time>2020-02-08T09:40:42Z</time>
      </trkpt>
      <trkpt lat="48.19155" lon="3.24511">
        <ele>166.8</ele>
        <time>2020-02-08T09:40:49Z</time>
      </trkpt>
      <trkpt lat="48.1914" lon="3.24526">
        <ele>167.9</ele>
        <time>2020-02-08T09:40:55Z</time>
      </trkpt>
      <trkpt lat="48.19127" lon="3.24555">
        <ele>168.4</ele>
        <time>2020-02-08T09:41:02Z</time>
      </trkpt>
      <trkpt lat="48.19106" lon="3.24574">
        <ele>169.3</ele>
        <time>2020-02-08T09:41:09Z</time>
      </trkpt>
      <trkpt lat="48.19077" lon="3.24579">
        <ele>170.9</ele>
        <time>2020-02-08T09:41:17Z</time>
      </trkpt>
      <trkpt lat="48.19046" lon="3.24581">
        <ele>171</ele>
        <time>2020-02-08T09:41:25Z</time>
      </trkpt>
      <trkpt lat="48.19005" lon="3.24581">
        <ele>171</ele>
        <time>2020-02-08T09:41:34Z</time>
      </trkpt>
      <trkpt lat="48.18965" lon="3.24579">
        <ele>169.8</ele>
        <time>2020-02-08T09:41:42Z</time>
      </trkpt>
      <trkpt lat="48.18919" lon="3.24584">
        <ele>169</ele>
        <time>2020-02-08T09:41:50Z</time>
      </trkpt>
      <trkpt lat="48.18904" lon="3.24588">
        <ele>169</ele>
        <time>2020-02-08T09:41:53Z</time>
      </trkpt>
      <trkpt lat="48.189" lon="3.24591">
        <ele>169</ele>
        <time>2020-02-08T09:41:54Z</time>
      </trkpt>
      <trkpt lat="48.1888" lon="3.24606">
        <ele>169.3</ele>
        <time>2020-02-08T09:42:01Z</time>
      </trkpt>
      <trkpt lat="48.1888" lon="3.24606">
        <ele>169.3</ele>
        <time>2020-02-08T09:42:02Z</time>
      </trkpt>
      <trkpt lat="48.18883" lon="3.24604">
        <ele>169.2</ele>
        <time>2020-02-08T09:42:05Z</time>
      </trkpt>
      <trkpt lat="48.18884" lon="3.24605">
        <ele>169.1</ele>
        <time>2020-02-08T09:42:11Z</time>
      </trkpt>
      <trkpt lat="48.18883" lon="3.24605">
        <ele>169.2</ele>
        <time>2020-02-08T09:42:18Z</time>
      </trkpt>
      <trkpt lat="48.18881" lon="3.24605">
        <ele>169.2</ele>
        <time>2020-02-08T09:42:19Z</time>
      </trkpt>
      <trkpt lat="48.1888" lon="3.24606">
        <ele>169.3</ele>
        <time>2020-02-08T09:42:20Z</time>
      </trkpt>
      <trkpt lat="48.18879" lon="3.24607">
        <ele>169.3</ele>
        <time>2020-02-08T09:42:21Z</time>
      </trkpt>
      <trkpt lat="48.18877" lon="3.24608">
        <ele>169.4</ele>
        <time>2020-02-08T09:42:22Z</time>
      </trkpt>
      <trkpt lat="48.18876" lon="3.2461">
        <ele>169.4</ele>
        <time>2020-02-08T09:42:23Z</time>
      </trkpt>
      <trkpt lat="48.18874" lon="3.24613">
        <ele>169.6</ele>
        <time>2020-02-08T09:42:24Z</time>
      </trkpt>
      <trkpt lat="48.18857" lon="3.24627">
        <ele>170</ele>
        <time>2020-02-08T09:42:30Z</time>
      </trkpt>
      <trkpt lat="48.18849" lon="3.24632">
        <ele>170</ele>
        <time>2020-02-08T09:42:32Z</time>
      </trkpt>
      <trkpt lat="48.18845" lon="3.24635">
        <ele>170</ele>
        <time>2020-02-08T09:42:33Z</time>
      </trkpt>
      <trkpt lat="48.18841" lon="3.24639">
        <ele>170</ele>
        <time>2020-02-08T09:42:34Z</time>
      </trkpt>
      <trkpt lat="48.18839" lon="3.24643">
        <ele>170</ele>
        <time>2020-02-08T09:42:35Z</time>
      </trkpt>
      <trkpt lat="48.18836" lon="3.24647">
        <ele>170</ele>
        <time>2020-02-08T09:42:36Z</time>
      </trkpt>
      <trkpt lat="48.18833" lon="3.24652">
        <ele>170</ele>
        <time>2020-02-08T09:42:37Z</time>
      </trkpt>
      <trkpt lat="48.18822" lon="3.24665">
        <ele>170</ele>
        <time>2020-02-08T09:42:40Z</time>
      </trkpt>
      <trkpt lat="48.18817" lon="3.24669">
        <ele>170.1</ele>
        <time>2020-02-08T09:42:41Z</time>
      </trkpt>
      <trkpt lat="48.18791" lon="3.24685">
        <ele>170.3</ele>
        <time>2020-02-08T09:42:47Z</time>
      </trkpt>
      <trkpt lat="48.18764" lon="3.24695">
        <ele>170</ele>
        <time>2020-02-08T09:42:53Z</time>
      </trkpt>
      <trkpt lat="48.18741" lon="3.2469">
        <ele>170.3</ele>
        <time>2020-02-08T09:43:00Z</time>
      </trkpt>
      <trkpt lat="48.1873" lon="3.24696">
        <ele>170.7</ele>
        <time>2020-02-08T09:43:06Z</time>
      </trkpt>
      <trkpt lat="48.18715" lon="3.24714">
        <ele>171</ele>
        <time>2020-02-08T09:43:15Z</time>
      </trkpt>
      <trkpt lat="48.18698" lon="3.24726">
        <ele>171</ele>
        <time>2020-02-08T09:43:22Z</time>
      </trkpt>
      <trkpt lat="48.1867" lon="3.24739">
        <ele>171</ele>
        <time>2020-02-08T09:43:29Z</time>
      </trkpt>
      <trkpt lat="48.18638" lon="3.24753">
        <ele>170</ele>
        <time>2020-02-08T09:43:36Z</time>
      </trkpt>
      <trkpt lat="48.1863" lon="3.2476">
        <ele>170.1</ele>
        <time>2020-02-08T09:43:38Z</time>
      </trkpt>
      <trkpt lat="48.18628" lon="3.24766">
        <ele>170.2</ele>
        <time>2020-02-08T09:43:39Z</time>
      </trkpt>
      <trkpt lat="48.18627" lon="3.24771">
        <ele>170.3</ele>
        <time>2020-02-08T09:43:40Z</time>
      </trkpt>
      <trkpt lat="48.18627" lon="3.24777">
        <ele>170.4</ele>
        <time>2020-02-08T09:43:41Z</time>
      </trkpt>
      <trkpt lat="48.18627" lon="3.24784">
        <ele>170.4</ele>
        <time>2020-02-08T09:43:42Z</time>
      </trkpt>
      <trkpt lat="48.18628" lon="3.24791">
        <ele>170.4</ele>
        <time>2020-02-08T09:43:43Z</time>
      </trkpt>
      <trkpt lat="48.1863" lon="3.24798">
        <ele>170.3</ele>
        <time>2020-02-08T09:43:44Z</time>
      </trkpt>
      <trkpt lat="48.18631" lon="3.24804">
        <ele>170.3</ele>
        <time>2020-02-08T09:43:45Z</time>
      </trkpt>
      <trkpt lat="48.1864" lon="3.24847">
        <ele>170.5</ele>
        <time>2020-02-08T09:43:52Z</time>
      </trkpt>
      <trkpt lat="48.18639" lon="3.24852">
        <ele>170.7</ele>
        <time>2020-02-08T09:43:53Z</time>
      </trkpt>
      <trkpt lat="48.1863" lon="3.24858">
        <ele>170.9</ele>
        <time>2020-02-08T09:43:56Z</time>
      </trkpt>
      <trkpt lat="48.18609" lon="3.24863">
        <ele>171.1</ele>
        <time>2020-02-08T09:44:01Z</time>
      </trkpt>
      <trkpt lat="48.18576" lon="3.24866">
        <ele>171.2</ele>
        <time>2020-02-08T09:44:09Z</time>
      </trkpt>
      <trkpt lat="48.18554" lon="3.24869">
        <ele>171.7</ele>
        <time>2020-02-08T09:44:16Z</time>
      </trkpt>
      <trkpt lat="48.18538" lon="3.24877">
        <ele>171.4</ele>
        <time>2020-02-08T09:44:22Z</time>
      </trkpt>
      <trkpt lat="48.18512" lon="3.24883">
        <ele>171.7</ele>
        <time>2020-02-08T09:44:31Z</time>
      </trkpt>
      <trkpt lat="48.1849" lon="3.24887">
        <ele>172</ele>
        <time>2020-02-08T09:44:39Z</time>
      </trkpt>
      <trkpt lat="48.18474" lon="3.24889">
        <ele>172</ele>
        <time>2020-02-08T09:44:45Z</time>
      </trkpt>
      <trkpt lat="48.18463" lon="3.24904">
        <ele>172</ele>
        <time>2020-02-08T09:44:51Z</time>
      </trkpt>
      <trkpt lat="48.18447" lon="3.24916">
        <ele>172</ele>
        <time>2020-02-08T09:44:57Z</time>
      </trkpt>
      <trkpt lat="48.18424" lon="3.24936">
        <ele>171.3</ele>
      </trkpt>
      <trkpt lat="48.18359" lon="3.24951">
        <ele>171.8</ele>
      </trkpt>
      <trkpt lat="48.18357" lon="3.25025">
        <ele>171</ele>
      </trkpt>
      <trkpt lat="48.18361" lon="3.25084">
        <ele>171</ele>
      </trkpt>
      <trkpt lat="48.18341" lon="3.25096">
        <ele>170.9</ele>
      </trkpt>
      <trkpt lat="48.18321" lon="3.25134">
        <ele>170.6</ele>
      </trkpt>
      <trkpt lat="48.18321" lon="3.25182">
        <ele>169.8</ele>
      </trkpt>
      <trkpt lat="48.18319" lon="3.25205">
        <ele>169.3</ele>
      </trkpt>
      <trkpt lat="48.18321" lon="3.25228">
        <ele>169</ele>
      </trkpt>
      <trkpt lat="48.18324" lon="3.25252">
        <ele>169</ele>
        <time>2020-02-08T09:46:52Z</time>
      </trkpt>
      <trkpt lat="48.18323" lon="3.25279">
        <ele>169</ele>
        <time>2020-02-08T09:46:58Z</time>
      </trkpt>
      <trkpt lat="48.18323" lon="3.25313">
        <ele>168</ele>
        <time>2020-02-08T09:47:05Z</time>
      </trkpt>
      <trkpt lat="48.18322" lon="3.25319">
        <ele>168</ele>
        <time>2020-02-08T09:47:06Z</time>
      </trkpt>
      <trkpt lat="48.18319" lon="3.25357">
        <ele>168</ele>
        <time>2020-02-08T09:47:13Z</time>
      </trkpt>
      <trkpt lat="48.18316" lon="3.25374">
        <ele>168</ele>
        <time>2020-02-08T09:47:16Z</time>
      </trkpt>
      <trkpt lat="48.18318" lon="3.25392">
        <ele>168.1</ele>
        <time>2020-02-08T09:47:20Z</time>
      </trkpt>
      <trkpt lat="48.18317" lon="3.25432">
        <ele>168.3</ele>
        <time>2020-02-08T09:47:29Z</time>
      </trkpt>
      <trkpt lat="48.18322" lon="3.2546">
        <ele>168</ele>
        <time>2020-02-08T09:47:36Z</time>
      </trkpt>
      <trkpt lat="48.18326" lon="3.25481">
        <ele>167.9</ele>
        <time>2020-02-08T09:47:43Z</time>
      </trkpt>
      <trkpt lat="48.18326" lon="3.25484">
        <ele>167.9</ele>
        <time>2020-02-08T09:47:49Z</time>
      </trkpt>
    </trkseg>
  </trk>
</gpx>